createdAt,value
2022-09-18T00:00:47.801Z,7.78
2022-09-18T00:03:16.983Z,7.79
2022-09-18T00:05:43.497Z,7.79
2022-09-18T00:08:09.860Z,7.76
2022-09-18T00:10:46.701Z,7.72
2022-09-18T00:13:14.167Z,7.67
2022-09-18T00:15:40.803Z,7.66
2022-09-18T00:18:07.419Z,7.63
2022-09-18T00:20:34.684Z,7.59
2022-09-18T00:23:00.968Z,7.58
2022-09-18T00:25:27.424Z,7.56
2022-09-18T00:27:53.698Z,7.54
2022-09-18T00:30:19.949Z,7.50
2022-09-18T00:32:46.288Z,7.48
2022-09-18T00:35:12.563Z,7.47
2022-09-18T00:37:38.848Z,7.50
2022-09-18T00:40:05.490Z,7.55
2022-09-18T00:42:31.823Z,7.61
2022-09-18T00:44:58.143Z,7.67
2022-09-18T00:47:27.147Z,7.70
2022-09-18T00:50:08.246Z,7.78
2022-09-18T00:52:52.833Z,7.78
2022-09-18T00:55:23.948Z,7.78
2022-09-18T00:57:52.053Z,7.80
2022-09-18T01:00:18.361Z,7.86
2022-09-18T01:02:45.890Z,7.91
2022-09-18T01:05:14.073Z,7.98
2022-09-18T01:07:40.285Z,8.04
2022-09-18T01:10:18.662Z,8.04
2022-09-18T01:12:51.175Z,8.04
2022-09-18T01:15:20.425Z,8.05
2022-09-18T01:17:54.761Z,8.10
2022-09-18T01:20:34.824Z,8.10
2022-09-18T01:23:04.104Z,8.08
2022-09-18T01:25:35.503Z,8.05
2022-09-18T01:28:20.838Z,7.99
2022-09-18T01:30:49.047Z,7.94
2022-09-18T01:33:20.807Z,7.87
2022-09-18T01:35:50.617Z,7.86
2022-09-18T01:38:23.267Z,7.88
2022-09-18T01:40:53.255Z,7.95
2022-09-18T01:43:20.873Z,8.01
2022-09-18T01:45:49.027Z,8.04
2022-09-18T01:48:25.448Z,8.06
2022-09-18T01:51:12.002Z,8.04
2022-09-18T01:53:40.818Z,7.98
2022-09-18T01:56:13.851Z,7.92
2022-09-18T01:58:40.143Z,7.86
2022-09-18T02:01:13.071Z,7.82
2022-09-18T02:03:42.122Z,7.84
2022-09-18T02:06:13.917Z,7.83
2022-09-18T02:08:56.385Z,7.80
2022-09-18T02:11:23.413Z,7.74
2022-09-18T02:13:53.039Z,7.67
2022-09-18T02:16:30.655Z,7.63
2022-09-18T02:18:57.899Z,7.60
2022-09-18T02:21:27.327Z,7.55
2022-09-18T02:23:57.475Z,7.55
2022-09-18T02:26:23.923Z,7.57
2022-09-18T02:28:50.868Z,7.64
2022-09-18T02:31:17.906Z,7.70
2022-09-18T02:33:44.726Z,7.75
2022-09-18T02:36:21.432Z,7.75
2022-09-18T02:38:54.368Z,7.75
2022-09-18T02:41:31.696Z,7.71
2022-09-18T02:44:09.859Z,7.69
2022-09-18T02:46:50.838Z,7.71
2022-09-18T02:49:35.991Z,7.76
2022-09-18T02:52:17.969Z,7.76
2022-09-18T02:54:49.502Z,7.82
2022-09-18T02:57:20.717Z,7.83
2022-09-18T02:59:52.323Z,7.82
2022-09-18T03:02:19.562Z,7.78
2022-09-18T03:04:45.951Z,7.75
2022-09-18T03:07:14.582Z,7.78
2022-09-18T03:09:40.881Z,7.76
2022-09-18T03:12:07.296Z,7.78
2022-09-18T03:14:33.545Z,7.82
2022-09-18T03:16:59.802Z,7.84
2022-09-18T03:19:26.084Z,7.85
2022-09-18T03:21:52.897Z,7.80
2022-09-18T03:24:19.884Z,7.82
2022-09-18T03:26:46.535Z,7.78
2022-09-18T03:29:13.637Z,7.75
2022-09-18T03:31:40.529Z,7.74
2022-09-18T03:34:07.027Z,7.69
2022-09-18T03:36:33.268Z,7.62
2022-09-18T03:38:59.640Z,7.60
2022-09-18T03:41:26.210Z,7.58
2022-09-18T03:43:52.908Z,7.57
2022-09-18T03:46:23.300Z,7.57
2022-09-18T03:48:52.513Z,7.59
2022-09-18T03:51:19.622Z,7.58
2022-09-18T03:53:46.559Z,7.59
2022-09-18T03:56:13.525Z,7.60
2022-09-18T03:58:39.841Z,7.58
2022-09-18T04:01:06.961Z,7.57
2022-09-18T04:03:34.007Z,7.51
2022-09-18T04:06:00.494Z,7.46
2022-09-18T04:08:26.904Z,7.44
2022-09-18T04:10:53.387Z,7.42
2022-09-18T04:13:20.546Z,7.36
2022-09-18T04:15:50.210Z,7.31
2022-09-18T04:18:16.986Z,7.28
2022-09-18T04:20:43.269Z,7.28
2022-09-18T04:23:12.102Z,7.30
2022-09-18T04:25:38.890Z,7.31
2022-09-18T04:28:05.226Z,7.39
2022-09-18T04:30:31.471Z,7.42
2022-09-18T04:32:57.725Z,7.45
2022-09-18T04:35:24.050Z,7.46
2022-09-18T04:37:50.322Z,7.38
2022-09-18T04:40:16.674Z,7.34
2022-09-18T04:42:42.960Z,7.33
2022-09-18T04:45:09.875Z,7.37
2022-09-18T04:47:36.336Z,7.44
2022-09-18T04:50:04.026Z,7.50
2022-09-18T04:52:30.399Z,7.53
2022-09-18T04:54:56.957Z,7.57
2022-09-18T04:57:23.195Z,7.61
2022-09-18T04:59:49.427Z,7.65
2022-09-18T05:02:15.766Z,7.69
2022-09-18T05:04:42.093Z,7.70
2022-09-18T05:07:08.355Z,7.72
2022-09-18T05:09:34.598Z,7.75
2022-09-18T05:12:00.956Z,7.78
2022-09-18T05:14:27.621Z,7.80
2022-09-18T05:16:53.930Z,7.82
2022-09-18T05:19:20.199Z,7.84
2022-09-18T05:21:48.601Z,7.88
2022-09-18T05:24:14.854Z,7.87
2022-09-18T05:26:41.135Z,7.91
2022-09-18T05:29:07.390Z,7.88
2022-09-18T05:31:33.659Z,7.92
2022-09-18T05:33:59.999Z,7.95
2022-09-18T05:36:26.385Z,7.96
2022-09-18T05:38:52.771Z,7.96
2022-09-18T05:41:19.019Z,7.98
2022-09-18T05:43:45.589Z,8.03
2022-09-18T05:46:12.198Z,8.10
2022-09-18T05:48:38.468Z,8.19
2022-09-18T05:51:04.800Z,8.23
2022-09-18T05:53:31.184Z,8.21
2022-09-18T05:55:59.142Z,8.17
2022-09-18T05:58:25.596Z,8.16
2022-09-18T06:00:52.389Z,8.13
2022-09-18T06:03:18.656Z,8.08
2022-09-18T06:05:51.599Z,7.99
2022-09-18T06:08:17.967Z,7.93
2022-09-18T06:10:44.428Z,7.90
2022-09-18T06:13:12.988Z,7.87
2022-09-18T06:15:39.749Z,7.88
2022-09-18T06:18:07.082Z,7.87
2022-09-18T06:20:33.319Z,7.89
2022-09-18T06:23:00.805Z,7.92
2022-09-18T06:25:30.500Z,7.98
2022-09-18T06:27:58.685Z,8.03
2022-09-18T06:30:26.183Z,8.05
2022-09-18T06:32:52.603Z,8.12
2022-09-18T06:35:18.889Z,8.12
2022-09-18T06:37:45.131Z,8.17
2022-09-18T06:40:11.919Z,8.18
2022-09-18T06:42:40.710Z,8.19
2022-09-18T06:45:10.656Z,8.11
2022-09-18T06:47:36.990Z,8.06
2022-09-18T06:50:03.630Z,7.97
2022-09-18T06:52:31.529Z,7.97
2022-09-18T06:54:57.789Z,8.04
2022-09-18T06:57:24.114Z,8.16
2022-09-18T06:59:50.367Z,8.24
2022-09-18T07:02:19.599Z,8.32
2022-09-18T07:04:46.818Z,8.44
2022-09-18T07:07:13.162Z,8.53
2022-09-18T07:09:39.408Z,8.58
2022-09-18T07:12:05.852Z,8.67
2022-09-18T07:14:32.212Z,8.74
2022-09-18T07:16:58.474Z,8.78
2022-09-18T07:19:24.740Z,8.84
2022-09-18T07:21:51.713Z,8.93
2022-09-18T07:24:18.011Z,9.09
2022-09-18T07:26:44.270Z,9.16
2022-09-18T07:29:10.552Z,9.39
2022-09-18T07:31:37.146Z,9.45
2022-09-18T07:34:03.476Z,9.46
2022-09-18T07:36:29.999Z,9.45
2022-09-18T07:38:56.458Z,9.52
2022-09-18T07:41:22.695Z,9.49
2022-09-18T07:43:49.972Z,9.41
2022-09-18T07:46:16.277Z,9.42
2022-09-18T07:48:42.604Z,9.42
2022-09-18T07:51:09.387Z,9.48
2022-09-18T07:53:37.582Z,9.50
2022-09-18T07:56:07.588Z,9.57
2022-09-18T07:58:33.948Z,9.62
2022-09-18T08:01:02.143Z,9.60
2022-09-18T08:03:28.580Z,9.65
2022-09-18T08:05:54.852Z,9.77
2022-09-18T08:08:21.098Z,9.70
2022-09-18T08:10:47.344Z,9.87
2022-09-18T08:13:13.856Z,9.96
2022-09-18T08:15:41.076Z,10.13
2022-09-18T08:18:08.387Z,10.11
2022-09-18T08:20:35.050Z,9.94
2022-09-18T08:23:05.300Z,9.85
2022-09-18T08:25:31.824Z,9.90
2022-09-18T08:27:58.751Z,9.85
2022-09-18T08:30:24.983Z,9.90
2022-09-18T08:32:51.223Z,9.96
2022-09-18T08:35:17.520Z,9.87
2022-09-18T08:37:47.329Z,9.83
2022-09-18T08:40:14.044Z,10.07
2022-09-18T08:42:47.323Z,10.29
2022-09-18T08:45:16.332Z,10.29
2022-09-18T08:47:53.238Z,10.25
2022-09-18T08:50:33.840Z,10.13
2022-09-18T08:53:14.798Z,9.90
2022-09-18T08:55:42.935Z,9.95
2022-09-18T08:58:35.637Z,10.03
2022-09-18T09:01:06.580Z,10.48
2022-09-18T09:03:51.296Z,10.56
2022-09-18T09:06:20.645Z,10.49
2022-09-18T09:08:47.062Z,10.71
2022-09-18T09:11:23.176Z,10.75
2022-09-18T09:14:01.384Z,10.89
2022-09-18T09:16:38.355Z,11.20
2022-09-18T09:19:10.800Z,11.33
2022-09-18T09:21:53.071Z,11.66
2022-09-18T09:24:41.131Z,11.70
2022-09-18T09:27:17.051Z,11.62
2022-09-18T09:29:45.211Z,11.54
2022-09-18T09:32:31.742Z,11.50
2022-09-18T09:35:11.061Z,11.43
2022-09-18T09:37:42.367Z,11.41
2022-09-18T09:40:24.438Z,11.53
2022-09-18T09:42:56.326Z,11.83
2022-09-18T09:45:29.311Z,12.05
2022-09-18T09:48:00.211Z,12.21
2022-09-18T09:50:31.363Z,12.41
2022-09-18T09:52:59.380Z,12.29
2022-09-18T09:55:32.790Z,12.02
2022-09-18T09:58:25.750Z,11.85
2022-09-18T10:01:22.065Z,11.57
2022-09-18T10:03:54.522Z,11.48
2022-09-18T10:06:20.797Z,11.51
2022-09-18T10:08:47.103Z,11.75
2022-09-18T10:11:14.217Z,11.95
2022-09-18T10:13:40.544Z,12.14
2022-09-18T10:16:16.265Z,12.34
2022-09-18T10:18:45.685Z,12.54
2022-09-18T10:21:14.276Z,12.83
2022-09-18T10:23:44.939Z,13.05
2022-09-18T10:26:23.335Z,13.11
2022-09-18T10:28:49.668Z,12.99
2022-09-18T10:31:16.619Z,12.83
2022-09-18T10:33:45.038Z,12.73
2022-09-18T10:36:14.067Z,12.47
2022-09-18T10:38:40.339Z,12.37
2022-09-18T10:41:15.635Z,12.55
2022-09-18T10:43:56.639Z,12.58
2022-09-18T10:46:27.792Z,12.88
2022-09-18T10:48:54.273Z,12.99
2022-09-18T10:51:21.694Z,13.07
2022-09-18T10:54:08.203Z,13.25
2022-09-18T10:56:34.464Z,13.56
2022-09-18T10:59:13.308Z,13.80
2022-09-18T11:01:44.103Z,14.89
2022-09-18T11:04:15.670Z,15.92
2022-09-18T11:06:44.374Z,16.74
2022-09-18T11:09:11.183Z,17.25
2022-09-18T11:11:42.231Z,17.24
2022-09-18T11:14:44.233Z,17.64
2022-09-18T11:17:20.207Z,18.15
2022-09-18T11:19:50.138Z,18.50
2022-09-18T11:22:38.884Z,18.36
2022-09-18T11:25:14.796Z,18.78
2022-09-18T11:27:45.752Z,18.82
2022-09-18T11:30:28.848Z,18.64
2022-09-18T11:33:02.556Z,18.09
2022-09-18T11:35:30.080Z,17.84
2022-09-18T11:37:59.343Z,17.13
2022-09-18T11:40:32.915Z,16.43
2022-09-18T11:43:00.045Z,15.46
2022-09-18T11:45:39.880Z,14.45
2022-09-18T11:48:23.775Z,13.69
2022-09-18T11:50:52.891Z,13.30
2022-09-18T11:53:24.091Z,13.10
2022-09-18T11:55:56.488Z,13.12
2022-09-18T11:58:49.147Z,14.02
2022-09-18T12:01:18.416Z,15.32
2022-09-18T12:03:49.464Z,16.20
2022-09-18T12:06:28.205Z,16.96
2022-09-18T12:08:59.950Z,17.33
2022-09-18T12:11:28.967Z,17.34
2022-09-18T12:14:14.219Z,17.56
2022-09-18T12:16:45.761Z,18.05
2022-09-18T12:19:27.014Z,18.11
2022-09-18T12:22:03.956Z,18.62
2022-09-18T12:24:30.344Z,18.46
2022-09-18T12:27:01.954Z,18.51
2022-09-18T12:29:28.664Z,18.61
2022-09-18T12:31:55.296Z,18.53
2022-09-18T12:34:33.916Z,18.52
2022-09-18T12:37:18.958Z,18.56
2022-09-18T12:39:48.974Z,18.77
2022-09-18T12:42:27.946Z,18.61
2022-09-18T12:45:00.318Z,18.85
2022-09-18T12:47:36.105Z,18.85
2022-09-18T12:50:14.337Z,18.65
2022-09-18T12:53:06.260Z,18.90
2022-09-18T12:55:44.909Z,19.21
2022-09-18T12:58:26.789Z,19.19
2022-09-18T13:00:53.125Z,18.78
2022-09-18T13:03:22.280Z,18.33
2022-09-18T13:05:54.355Z,18.11
2022-09-18T13:08:30.169Z,17.69
2022-09-18T13:10:59.719Z,17.70
2022-09-18T13:13:39.862Z,17.29
2022-09-18T13:16:13.305Z,16.85
2022-09-18T13:19:14.826Z,16.21
2022-09-18T13:21:42.544Z,16.01
2022-09-18T13:24:12.925Z,16.30
2022-09-18T13:26:39.996Z,16.16
2022-09-18T13:29:24.858Z,16.21
2022-09-18T13:31:54.339Z,15.78
2022-09-18T13:34:22.715Z,15.55
2022-09-18T13:36:49.031Z,15.27
2022-09-18T13:39:26.954Z,15.00
2022-09-18T13:41:54.571Z,14.66
2022-09-18T13:44:23.463Z,14.40
2022-09-18T13:46:50.777Z,14.11
2022-09-18T13:49:19.610Z,13.73
2022-09-18T13:51:46.113Z,13.53
2022-09-18T13:54:12.330Z,13.36
2022-09-18T13:56:57.541Z,13.22
2022-09-18T13:59:43.378Z,13.00
2022-09-18T14:02:23.076Z,12.87
2022-09-18T14:04:50.540Z,12.72
2022-09-18T14:07:16.892Z,12.58
2022-09-18T14:09:52.661Z,12.39
2022-09-18T14:12:19.573Z,12.15
2022-09-18T14:14:57.368Z,11.91
2022-09-18T14:17:25.240Z,11.65
2022-09-18T14:19:59.296Z,11.33
2022-09-18T14:22:28.308Z,11.08
2022-09-18T14:24:57.108Z,10.93
2022-09-18T14:27:42.505Z,10.82
2022-09-18T14:30:17.288Z,10.82
2022-09-18T14:33:04.476Z,10.89
2022-09-18T14:36:22.889Z,11.06
2022-09-18T14:38:55.260Z,12.01
2022-09-18T14:41:27.258Z,12.94
2022-09-18T14:44:06.688Z,13.80
2022-09-18T14:46:36.750Z,14.20
2022-09-18T14:49:05.751Z,13.73
2022-09-18T14:51:54.520Z,13.20
2022-09-18T14:54:23.752Z,12.83
2022-09-18T14:56:52.401Z,12.63
2022-09-18T14:59:19.311Z,12.35
2022-09-18T15:01:45.594Z,12.11
2022-09-18T15:04:16.534Z,12.04
2022-09-18T15:06:42.861Z,12.05
2022-09-18T15:09:11.339Z,12.10
2022-09-18T15:11:58.756Z,12.14
2022-09-18T15:14:45.503Z,12.16
2022-09-18T15:17:30.864Z,12.15
2022-09-18T15:20:01.611Z,12.14
2022-09-18T15:22:28.641Z,12.06
2022-09-18T15:24:58.458Z,12.02
2022-09-18T15:27:24.992Z,11.89
2022-09-18T15:30:00.192Z,11.72
2022-09-18T15:32:29.274Z,11.34
2022-09-18T15:34:57.575Z,11.09
2022-09-18T15:37:25.772Z,10.91
2022-09-18T15:40:03.511Z,10.75
2022-09-18T15:42:33.426Z,10.60
2022-09-18T15:45:00.284Z,10.57
2022-09-18T15:47:31.099Z,10.47
2022-09-18T15:49:58.574Z,10.44
2022-09-18T15:52:47.676Z,10.35
2022-09-18T15:55:17.431Z,10.23
2022-09-18T15:57:51.165Z,10.12
2022-09-18T16:00:18.451Z,10.08
2022-09-18T16:02:50.732Z,10.02
2022-09-18T16:05:17.541Z,10.02
2022-09-18T16:07:52.607Z,9.97
2022-09-18T16:10:42.016Z,9.98
2022-09-18T16:13:11.107Z,9.95
2022-09-18T16:15:37.731Z,9.95
2022-09-18T16:18:15.989Z,9.98
2022-09-18T16:20:42.271Z,10.10
2022-09-18T16:23:13.921Z,10.16
2022-09-18T16:25:42.032Z,10.19
2022-09-18T16:28:23.734Z,10.20
2022-09-18T16:30:50.179Z,10.11
2022-09-18T16:33:24.696Z,10.00
2022-09-18T16:35:56.215Z,9.94
2022-09-18T16:38:23.286Z,9.88
2022-09-18T16:40:50.320Z,9.94
2022-09-18T16:43:16.989Z,9.95
2022-09-18T16:45:44.535Z,10.01
2022-09-18T16:48:11.500Z,10.06
2022-09-18T16:50:38.852Z,10.14
2022-09-18T16:53:06.049Z,10.21
2022-09-18T16:55:32.607Z,10.25
2022-09-18T16:57:59.099Z,10.33
2022-09-18T17:00:25.374Z,10.35
2022-09-18T17:02:52.309Z,10.36
2022-09-18T17:05:18.685Z,10.33
2022-09-18T17:07:45.016Z,10.29
2022-09-18T17:10:12.410Z,10.23
2022-09-18T17:12:39.640Z,10.13
2022-09-18T17:15:07.156Z,10.05
2022-09-18T17:17:35.687Z,9.99
2022-09-18T17:20:03.150Z,9.99
2022-09-18T17:22:31.181Z,9.96
2022-09-18T17:24:57.771Z,9.94
2022-09-18T17:27:25.234Z,9.87
2022-09-18T17:29:51.990Z,9.87
2022-09-18T17:32:18.288Z,9.86
2022-09-18T17:34:44.581Z,9.86
2022-09-18T17:37:10.881Z,9.85
2022-09-18T17:39:37.298Z,9.81
2022-09-18T17:42:03.773Z,9.79
2022-09-18T17:44:32.084Z,9.75
2022-09-18T17:46:58.549Z,9.74
2022-09-18T17:49:26.052Z,9.75
2022-09-18T17:51:52.415Z,9.78
2022-09-18T17:54:19.320Z,9.74
2022-09-18T17:56:46.254Z,9.71
2022-09-18T17:59:14.086Z,9.67
2022-09-18T18:01:43.297Z,9.66
2022-09-18T18:04:09.651Z,9.63
2022-09-18T18:06:37.103Z,9.56
2022-09-18T18:09:06.029Z,9.56
2022-09-18T18:11:33.168Z,9.54
2022-09-18T18:14:00.230Z,9.53
2022-09-18T18:16:28.682Z,9.51
2022-09-18T18:18:57.229Z,9.49
2022-09-18T18:21:24.108Z,9.46
2022-09-18T18:24:05.317Z,9.45
2022-09-18T18:26:31.680Z,9.44
2022-09-18T18:28:57.953Z,9.44
2022-09-18T18:31:25.530Z,9.40
2022-09-18T18:33:52.866Z,9.41
2022-09-18T18:36:23.451Z,9.35
2022-09-18T18:38:51.060Z,9.31
2022-09-18T18:41:18.530Z,9.29
2022-09-18T18:43:45.235Z,9.31
2022-09-18T18:46:12.947Z,9.32
2022-09-18T18:48:40.002Z,9.35
2022-09-18T18:51:11.242Z,9.38
2022-09-18T18:53:37.823Z,9.38
2022-09-18T18:56:22.812Z,9.39
2022-09-18T18:58:49.418Z,9.42
2022-09-18T19:01:16.983Z,9.45
2022-09-18T19:03:49.217Z,9.41
2022-09-18T19:06:15.859Z,9.41
2022-09-18T19:08:46.211Z,9.46
2022-09-18T19:11:17.131Z,9.41
2022-09-18T19:13:44.567Z,9.35
2022-09-18T19:16:11.816Z,9.30
2022-09-18T19:18:38.646Z,9.26
2022-09-18T19:21:05.896Z,9.23
2022-09-18T19:23:32.250Z,9.21
2022-09-18T19:25:59.978Z,9.20
2022-09-18T19:28:29.942Z,9.21
2022-09-18T19:31:04.032Z,9.21
2022-09-18T19:33:31.217Z,9.22
2022-09-18T19:36:05.103Z,9.28
2022-09-18T19:38:32.824Z,9.38
2022-09-18T19:41:02.011Z,9.44
2022-09-18T19:43:33.014Z,9.49
2022-09-18T19:45:59.596Z,9.53
2022-09-18T19:48:27.016Z,9.56
2022-09-18T19:50:53.367Z,9.61
2022-09-18T19:53:20.361Z,9.67
2022-09-18T19:55:47.345Z,9.72
2022-09-18T19:58:15.473Z,9.75
2022-09-18T20:00:43.085Z,9.78
2022-09-18T20:03:10.070Z,9.77
2022-09-18T20:05:37.266Z,9.81
2022-09-18T20:08:06.272Z,9.84
2022-09-18T20:10:33.565Z,9.88
2022-09-18T20:12:59.835Z,9.94
2022-09-18T20:15:26.249Z,9.97
2022-09-18T20:17:52.763Z,9.96
2022-09-18T20:20:19.042Z,9.98
2022-09-18T20:22:45.270Z,9.98
2022-09-18T20:25:11.605Z,9.98
2022-09-18T20:27:39.610Z,9.97
2022-09-18T20:30:07.283Z,9.95
2022-09-18T20:32:33.534Z,9.92
2022-09-18T20:34:59.810Z,9.89
2022-09-18T20:37:28.760Z,9.85
2022-09-18T20:39:55.225Z,9.85
2022-09-18T20:42:23.309Z,9.85
2022-09-18T20:44:49.638Z,9.80
2022-09-18T20:47:17.602Z,9.74
2022-09-18T20:49:45.930Z,9.69
2022-09-18T20:52:14.619Z,9.70
2022-09-18T20:54:41.560Z,9.67
2022-09-18T20:57:08.210Z,9.67
2022-09-18T20:59:34.471Z,9.65
2022-09-18T21:02:00.832Z,9.65
2022-09-18T21:04:27.153Z,9.66
2022-09-18T21:06:57.105Z,9.67
2022-09-18T21:09:24.689Z,9.69
2022-09-18T21:11:50.955Z,9.70
2022-09-18T21:14:17.780Z,9.74
2022-09-18T21:16:44.872Z,9.75
2022-09-18T21:19:12.107Z,9.80
2022-09-18T21:21:38.831Z,9.79
2022-09-18T21:24:05.451Z,9.75
2022-09-18T21:26:33.307Z,9.72
2022-09-18T21:29:00.999Z,9.71
2022-09-18T21:31:27.890Z,9.71
2022-09-18T21:33:54.195Z,9.65
2022-09-18T21:36:21.726Z,9.56
2022-09-18T21:38:49.002Z,9.49
2022-09-18T21:41:15.333Z,9.40
2022-09-18T21:43:45.404Z,9.34
2022-09-18T21:46:12.695Z,9.32
2022-09-18T21:48:39.963Z,9.25
2022-09-18T21:51:10.600Z,9.23
2022-09-18T21:53:41.146Z,9.25
2022-09-18T21:56:10.728Z,9.28
2022-09-18T21:58:40.513Z,9.33
2022-09-18T22:01:28.474Z,9.38
2022-09-18T22:03:56.085Z,9.36
2022-09-18T22:06:23.601Z,9.33
2022-09-18T22:08:52.337Z,9.29
2022-09-18T22:11:19.451Z,9.27
2022-09-18T22:13:46.462Z,9.21
2022-09-18T22:16:13.549Z,9.23
2022-09-18T22:18:40.686Z,9.17
2022-09-18T22:21:17.876Z,9.20
2022-09-18T22:23:44.685Z,9.22
2022-09-18T22:26:10.934Z,9.22
2022-09-18T22:28:37.162Z,9.20
2022-09-18T22:31:06.716Z,9.18
2022-09-18T22:33:34.524Z,9.15
2022-09-18T22:36:04.565Z,9.13
2022-09-18T22:38:31.094Z,9.10
2022-09-18T22:41:03.934Z,9.15
2022-09-18T22:43:30.392Z,9.16
2022-09-18T22:46:02.844Z,9.17
2022-09-18T22:48:30.531Z,9.19
2022-09-18T22:51:02.341Z,9.21
2022-09-18T22:53:28.582Z,9.20
2022-09-18T22:56:00.026Z,9.15
2022-09-18T22:58:26.275Z,9.08
2022-09-18T23:00:52.637Z,9.02
2022-09-18T23:03:18.902Z,8.96
2022-09-18T23:05:46.979Z,8.88
2022-09-18T23:08:13.236Z,8.82
2022-09-18T23:10:39.955Z,8.76
2022-09-18T23:13:06.290Z,8.76
2022-09-18T23:15:36.000Z,8.75
2022-09-18T23:18:02.242Z,8.70
2022-09-18T23:20:29.249Z,8.65
2022-09-18T23:22:55.491Z,8.61
2022-09-18T23:25:21.785Z,8.59
2022-09-18T23:27:48.046Z,8.57
2022-09-18T23:30:14.321Z,8.53
2022-09-18T23:32:40.583Z,8.51
2022-09-18T23:35:06.982Z,8.50
2022-09-18T23:37:33.232Z,8.48
2022-09-18T23:39:59.525Z,8.46
2022-09-18T23:42:26.599Z,8.49
2022-09-18T23:44:52.842Z,8.50
2022-09-18T23:47:19.073Z,8.49
2022-09-18T23:49:45.307Z,8.47
2022-09-18T23:52:11.666Z,8.45
2022-09-18T23:54:37.924Z,8.44
2022-09-18T23:57:04.311Z,8.43
2022-09-18T23:59:30.636Z,8.43
